createdAt,value
2018-06-05T00:06:46.286Z,96780.23
2018-06-05T00:09:33.444Z,96777.74
2018-06-05T00:12:22.093Z,96777.28
2018-06-05T00:15:09.445Z,96777.35
2018-06-05T00:18:03.189Z,96774.42
2018-06-05T00:23:40.583Z,96775.83
2018-06-05T00:26:26.935Z,96767.97
2018-06-05T00:31:48.645Z,96768.87
2018-06-05T00:34:25.261Z,96767.23
2018-06-05T00:37:02.417Z,96769.67
2018-06-05T00:39:39.124Z,96764.95
2018-06-05T00:42:16.161Z,96760.09
2018-06-05T00:44:53.088Z,96757.59
2018-06-05T00:47:36.922Z,96757.13
2018-06-05T00:50:18.234Z,96755.51
2018-06-05T00:52:56.050Z,96751.41
2018-06-05T00:55:31.903Z,96747.08
2018-06-05T00:58:07.499Z,96741.78
2018-06-05T01:03:29.139Z,96737.27
2018-06-05T01:06:06.774Z,96739.69
2018-06-05T01:08:51.902Z,96734.69
2018-06-05T01:11:29.630Z,96740.97
2018-06-05T01:14:08.845Z,96742.32
2018-06-05T01:16:43.833Z,96735.15
2018-06-05T01:19:24.505Z,96742.41
2018-06-05T01:22:00.999Z,96741.84
2018-06-05T01:24:39.741Z,96745.48
2018-06-05T01:27:18.301Z,96742.07
2018-06-05T01:32:35.569Z,96743.05
2018-06-05T01:35:11.399Z,96741.80
2018-06-05T01:37:47.633Z,96740.80
2018-06-05T01:40:27.399Z,96735.81
2018-06-05T01:43:08.081Z,96727.04
2018-06-05T01:45:44.437Z,96729.39
2018-06-05T01:48:23.615Z,96737.00
2018-06-05T01:51:05.815Z,96736.93
2018-06-05T01:53:44.385Z,96745.29
2018-06-05T01:56:25.792Z,96754.27
2018-06-05T01:59:03.279Z,96750.88
2018-06-05T02:01:36.444Z,96746.28
2018-06-05T02:04:15.710Z,96747.61
2018-06-05T02:06:58.842Z,96749.62
2018-06-05T02:09:43.340Z,96741.66
2018-06-05T02:12:26.699Z,96740.58
2018-06-05T02:15:10.100Z,96738.94
2018-06-05T02:17:46.140Z,96740.06
2018-06-05T02:20:26.317Z,96739.83
2018-06-05T02:23:03.392Z,96738.47
2018-06-05T02:25:39.228Z,96742.20
2018-06-05T02:28:19.376Z,96746.90
2018-06-05T02:31:02.360Z,96746.06
2018-06-05T02:33:44.991Z,96743.88
2018-06-05T02:39:14.479Z,96741.95
2018-06-05T02:41:51.540Z,96745.33
2018-06-05T02:44:35.418Z,96750.23
2018-06-05T02:47:13.456Z,96747.56
2018-06-05T02:49:54.251Z,96746.52
2018-06-05T02:52:37.405Z,96745.48
2018-06-05T02:55:17.345Z,96748.69
2018-06-05T02:57:52.545Z,96750.03
2018-06-05T03:00:30.646Z,96750.82
2018-06-05T03:03:06.950Z,96754.89
2018-06-05T03:05:42.303Z,96753.62
2018-06-05T03:08:19.837Z,96759.31
2018-06-05T03:10:54.433Z,96755.84
2018-06-05T03:13:35.753Z,96754.25
2018-06-05T03:18:56.311Z,96753.58
2018-06-05T03:21:27.857Z,96749.91
2018-06-05T03:24:01.947Z,96754.31
2018-06-05T03:26:38.952Z,96756.80
2018-06-05T03:29:19.142Z,96765.04
2018-06-05T03:32:00.979Z,96763.97
2018-06-05T03:34:44.288Z,96769.15
2018-06-05T03:37:31.667Z,96759.92
2018-06-05T03:40:21.557Z,96766.93
2018-06-05T03:43:03.573Z,96765.91
2018-06-05T03:45:40.810Z,96763.19
2018-06-05T03:48:20.832Z,96762.70
2018-06-05T03:50:59.546Z,96759.55
2018-06-05T03:53:41.079Z,96759.33
2018-06-05T03:56:18.380Z,96764.38
2018-06-05T03:58:56.576Z,96767.05
2018-06-05T04:01:36.245Z,96767.33
2018-06-05T04:04:17.296Z,96765.46
2018-06-05T04:06:58.043Z,96771.31
2018-06-05T04:09:43.231Z,96770.25
2018-06-05T04:12:23.169Z,96772.17
2018-06-05T04:15:04.383Z,96770.78
2018-06-05T04:17:41.421Z,96772.91
2018-06-05T04:20:23.483Z,96772.92
2018-06-05T04:23:02.793Z,96768.09
2018-06-05T04:25:41.497Z,96773.22
2018-06-05T04:28:17.840Z,96773.80
2018-06-05T04:30:58.482Z,96778.90
2018-06-05T04:33:39.624Z,96770.33
2018-06-05T04:36:17.405Z,96776.73
2018-06-05T04:39:01.211Z,96782.58
2018-06-05T04:41:38.929Z,96787.89
2018-06-05T04:44:16.837Z,96791.38
2018-06-05T04:46:53.060Z,96790.89
2018-06-05T04:49:30.925Z,96796.20
2018-06-05T04:52:06.209Z,96803.25
2018-06-05T04:54:48.659Z,96810.09
2018-06-05T04:57:22.773Z,96818.56
2018-06-05T05:00:03.025Z,96824.97
2018-06-05T05:02:43.733Z,96821.97
2018-06-05T05:05:18.593Z,96823.02
2018-06-05T05:07:57.248Z,96830.41
2018-06-05T05:10:33.542Z,96828.62
2018-06-05T05:15:56.165Z,96825.17
2018-06-05T05:18:35.628Z,96832.16
2018-06-05T05:21:18.386Z,96839.41
2018-06-05T05:23:58.621Z,96843.72
2018-06-05T05:26:43.006Z,96847.93
2018-06-05T05:29:24.316Z,96843.59
2018-06-05T05:32:02.461Z,96849.11
2018-06-05T05:34:42.171Z,96844.80
2018-06-05T05:37:22.993Z,96844.36
2018-06-05T05:40:10.698Z,96845.21
2018-06-05T05:42:48.277Z,96846.00
2018-06-05T05:45:24.452Z,96848.40
2018-06-05T05:48:01.534Z,96848.53
2018-06-05T05:50:45.187Z,96853.87
2018-06-05T05:53:25.872Z,96858.46
2018-06-05T05:56:09.422Z,96863.72
2018-06-05T05:58:50.832Z,96862.20
2018-06-05T06:01:32.322Z,96854.93
2018-06-05T06:04:12.416Z,96851.05
2018-06-05T06:06:55.493Z,96852.27
2018-06-05T06:09:30.692Z,96852.63
2018-06-05T06:12:11.245Z,96850.52
2018-06-05T06:14:51.480Z,96854.25
2018-06-05T06:17:26.711Z,96855.77
2018-06-05T06:20:03.919Z,96849.17
2018-06-05T06:22:48.086Z,96855.20
2018-06-05T06:25:29.369Z,96857.23
2018-06-05T06:28:14.003Z,96850.19
2018-06-05T06:33:40.102Z,96853.34
2018-06-05T06:36:24.210Z,96855.44
2018-06-05T06:38:59.242Z,96845.78
2018-06-05T06:41:34.806Z,96849.36
2018-06-05T06:44:11.394Z,96848.98
2018-06-05T06:46:56.172Z,96846.92
2018-06-05T06:49:35.399Z,96841.22
2018-06-05T06:52:15.934Z,96837.91
2018-06-05T06:54:56.154Z,96839.27
2018-06-05T06:57:39.790Z,96837.77
2018-06-05T07:00:17.429Z,96836.47
2018-06-05T07:02:55.563Z,96832.66
2018-06-05T07:05:32.260Z,96832.31
2018-06-05T07:08:15.895Z,96830.34
2018-06-05T07:11:04.077Z,96830.00
2018-06-05T07:13:43.839Z,96833.28
2018-06-05T07:16:25.548Z,96837.69
2018-06-05T07:19:07.825Z,96842.65
2018-06-05T07:21:51.422Z,96843.12
2018-06-05T07:24:27.219Z,96839.67
2018-06-05T07:27:12.874Z,96842.70
2018-06-05T07:29:50.333Z,96846.77
2018-06-05T07:32:27.192Z,96845.95
2018-06-05T07:35:12.023Z,96836.28
2018-06-05T07:37:47.203Z,96841.47
2018-06-05T07:40:24.733Z,96834.45
2018-06-05T07:43:03.580Z,96834.91
2018-06-05T07:45:44.637Z,96835.23
2018-06-05T07:48:17.788Z,96834.30
2018-06-05T07:50:57.067Z,96837.69
2018-06-05T07:53:33.775Z,96835.59
2018-06-05T07:56:10.192Z,96835.83
2018-06-05T07:58:45.544Z,96830.98
2018-06-05T08:01:25.705Z,96831.64
2018-06-05T08:04:07.321Z,96823.48
2018-06-05T08:06:48.292Z,96824.91
2018-06-05T08:09:26.167Z,96828.12
2018-06-05T08:12:02.069Z,96827.35
2018-06-05T08:14:46.549Z,96825.93
2018-06-05T08:17:22.037Z,96831.91
2018-06-05T08:20:02.540Z,96829.98
2018-06-05T08:22:59.980Z,96831.37
2018-06-05T08:25:35.467Z,96837.77
2018-06-05T08:28:15.509Z,96834.62
2018-06-05T08:30:51.091Z,96834.14
2018-06-05T08:33:30.274Z,96836.91
2018-06-05T08:36:12.580Z,96837.33
2018-06-05T08:38:54.232Z,96836.65
2018-06-05T08:41:32.229Z,96830.25
2018-06-05T08:44:07.563Z,96832.94
2018-06-05T08:46:43.054Z,96835.50
2018-06-05T08:49:28.630Z,96835.58
2018-06-05T08:52:06.859Z,96829.89
2018-06-05T08:54:43.143Z,96838.02
2018-06-05T08:57:25.446Z,96833.16
2018-06-05T09:00:05.326Z,96830.57
2018-06-05T09:02:38.555Z,96833.03
2018-06-05T09:05:18.881Z,96828.27
2018-06-05T09:08:04.940Z,96825.84
2018-06-05T09:10:46.776Z,96826.27
2018-06-05T09:13:25.267Z,96823.44
2018-06-05T09:16:06.010Z,96822.66
2018-06-05T09:18:44.069Z,96827.50
2018-06-05T09:21:22.033Z,96823.91
2018-06-05T09:23:57.937Z,96821.34
2018-06-05T09:26:44.025Z,96827.42
2018-06-05T09:29:20.123Z,96820.59
2018-06-05T09:32:02.637Z,96818.23
2018-06-05T09:34:41.434Z,96811.55
2018-06-05T09:37:18.721Z,96811.06
2018-06-05T09:39:54.496Z,96811.23
2018-06-05T09:42:31.391Z,96823.52
2018-06-05T09:45:06.520Z,96815.58
2018-06-05T09:47:50.383Z,96812.20
2018-06-05T09:50:28.347Z,96801.45
2018-06-05T09:53:04.199Z,96810.39
2018-06-05T09:55:40.335Z,96803.45
2018-06-05T09:58:15.935Z,96802.07
2018-06-05T10:03:44.451Z,96788.70
2018-06-05T10:06:20.081Z,96792.17
2018-06-05T10:09:00.056Z,96794.45
2018-06-05T10:11:35.818Z,96791.54
2018-06-05T10:14:13.784Z,96785.95
2018-06-05T10:17:01.231Z,96791.25
2018-06-05T10:19:41.813Z,96791.16
2018-06-05T10:22:17.604Z,96790.00
2018-06-05T10:24:55.370Z,96783.17
2018-06-05T10:27:34.114Z,96780.44
2018-06-05T10:32:57.058Z,96770.61
2018-06-05T10:35:36.551Z,96771.14
2018-06-05T10:38:16.856Z,96768.13
2018-06-05T10:40:58.770Z,96770.87
2018-06-05T10:43:36.648Z,96768.58
2018-06-05T10:46:10.180Z,96769.84
2018-06-05T10:48:46.391Z,96773.11
2018-06-05T10:51:32.439Z,96770.17
2018-06-05T10:54:17.360Z,96771.84
2018-06-05T10:57:02.169Z,96764.92
2018-06-05T10:59:43.188Z,96765.09
2018-06-05T11:02:22.120Z,96774.37
2018-06-05T11:05:01.565Z,96771.75
2018-06-05T11:07:45.695Z,96777.11
2018-06-05T11:10:29.736Z,96781.67
2018-06-05T11:13:10.558Z,96781.76
2018-06-05T11:15:58.070Z,96776.11
2018-06-05T11:18:38.866Z,96766.39
2018-06-05T11:21:15.950Z,96757.33
2018-06-05T11:23:52.302Z,96757.52
2018-06-05T11:26:34.079Z,96748.50
2018-06-05T11:29:09.634Z,96755.23
2018-06-05T11:31:52.012Z,96744.13
2018-06-05T11:34:35.654Z,96735.77
2018-06-05T11:37:10.399Z,96738.56
2018-06-05T11:39:48.350Z,96740.63
2018-06-05T11:42:28.518Z,96739.50
2018-06-05T11:45:11.573Z,96733.59
2018-06-05T11:47:51.441Z,96732.94
2018-06-05T11:50:38.225Z,96728.41
2018-06-05T11:53:20.192Z,96719.02
2018-06-05T11:56:00.448Z,96716.96
2018-06-05T11:58:37.903Z,96705.67
2018-06-05T12:01:18.544Z,96706.02
2018-06-05T12:06:47.054Z,96725.05
2018-06-05T12:09:36.994Z,96719.50
2018-06-05T12:12:13.385Z,96720.18
2018-06-05T12:14:49.654Z,96730.75
2018-06-05T12:17:35.113Z,96727.94
2018-06-05T12:20:10.018Z,96726.50
2018-06-05T12:22:52.998Z,96732.55
2018-06-05T12:25:30.478Z,96736.07
2018-06-05T12:28:12.757Z,96742.74
2018-06-05T12:30:55.978Z,96741.11
2018-06-05T12:33:35.806Z,96755.72
2018-06-05T12:36:19.870Z,96759.98
2018-06-05T12:39:03.621Z,96759.23
2018-06-05T12:41:43.723Z,96765.91
2018-06-05T12:44:28.145Z,96766.92
2018-06-05T12:47:07.944Z,96766.66
2018-06-05T12:49:50.352Z,96773.61
2018-06-05T12:52:29.504Z,96783.75
2018-06-05T12:55:09.235Z,96783.38
2018-06-05T12:57:45.456Z,96769.16
2018-06-05T13:00:26.717Z,96773.79
2018-06-05T13:05:50.321Z,96769.72
2018-06-05T13:08:34.353Z,96774.65
2018-06-05T13:11:13.515Z,96765.49
2018-06-05T13:13:54.962Z,96764.28
2018-06-05T13:16:32.697Z,96758.12
2018-06-05T13:19:12.698Z,96752.63
2018-06-05T13:21:49.446Z,96749.59
2018-06-05T13:24:28.201Z,96747.30
2018-06-05T13:27:14.434Z,96732.16
2018-06-05T13:29:57.576Z,96722.15
2018-06-05T13:32:41.982Z,96715.83
2018-06-05T13:35:23.844Z,96700.87
2018-06-05T13:38:07.984Z,96702.05
2018-06-05T13:40:45.623Z,96696.30
2018-06-05T13:43:26.165Z,96697.14
2018-06-05T13:46:09.078Z,96696.52
2018-06-05T13:48:50.599Z,96701.90
2018-06-05T13:51:35.232Z,96707.06
2018-06-05T13:54:17.535Z,96713.56
2018-06-05T13:56:59.771Z,96721.81
2018-06-05T13:59:36.465Z,96727.13
2018-06-05T14:02:18.103Z,96729.06
2018-06-05T14:04:58.509Z,96736.19
2018-06-05T14:07:38.670Z,96734.78
2018-06-05T14:10:19.089Z,96735.75
2018-06-05T14:12:56.612Z,96746.04
2018-06-05T14:15:38.242Z,96753.52
2018-06-05T14:18:18.871Z,96750.17
2018-06-05T14:23:41.547Z,96758.80
2018-06-05T14:26:19.664Z,96753.47
2018-06-05T14:28:59.890Z,96747.93
2018-06-05T14:31:41.314Z,96750.95
2018-06-05T14:34:19.829Z,96750.91
2018-06-05T14:39:55.655Z,96747.52
2018-06-05T14:42:39.106Z,96743.83
2018-06-05T14:45:18.570Z,96748.87
2018-06-05T14:48:03.921Z,96750.78
2018-06-05T14:50:41.035Z,96746.95
2018-06-05T14:56:08.350Z,96739.78
2018-06-05T14:58:50.730Z,96743.88
2018-06-05T15:01:33.169Z,96748.16
2018-06-05T15:04:12.641Z,96759.45
2018-06-05T15:06:56.671Z,96755.63
2018-06-05T15:09:34.683Z,96756.55
2018-06-05T15:12:11.992Z,96757.41
2018-06-05T15:14:53.956Z,96760.05
2018-06-05T15:20:22.915Z,96758.59
2018-06-05T15:23:04.464Z,96760.80
2018-06-05T15:25:45.302Z,96762.09
2018-06-05T15:28:27.178Z,96763.83
2018-06-05T15:31:12.142Z,96767.38
2018-06-05T15:33:54.102Z,96764.67
2018-06-05T15:36:33.647Z,96767.09
2018-06-05T15:39:15.064Z,96757.09
2018-06-05T15:41:55.376Z,96754.48
2018-06-05T15:44:43.961Z,96753.84
2018-06-05T15:47:24.669Z,96763.02
2018-06-05T15:50:09.774Z,96756.34
2018-06-05T15:55:47.286Z,96751.50
2018-06-05T15:58:23.674Z,96740.05
2018-06-05T16:01:04.313Z,96736.40
2018-06-05T16:03:43.667Z,96733.00
2018-06-05T16:06:23.788Z,96738.34
2018-06-05T16:09:07.816Z,96743.25
2018-06-05T16:11:51.747Z,96751.30
2018-06-05T16:14:32.981Z,96755.47
2018-06-05T16:17:12.540Z,96756.98
2018-06-05T16:19:56.151Z,96762.56
2018-06-05T16:22:36.064Z,96770.83
2018-06-05T16:25:17.023Z,96770.92
2018-06-05T16:27:56.637Z,96771.94
2018-06-05T16:30:39.100Z,96776.63
2018-06-05T16:33:21.522Z,96779.13
2018-06-05T16:36:00.687Z,96791.84
2018-06-05T16:38:39.464Z,96785.46
2018-06-05T16:41:18.201Z,96800.12
2018-06-05T16:43:59.213Z,96812.14
2018-06-05T16:46:45.110Z,96813.84
2018-06-05T16:49:33.144Z,96819.24
2018-06-05T16:52:12.226Z,96813.91
2018-06-05T16:54:52.089Z,96816.63
2018-06-05T16:57:31.529Z,96810.04
2018-06-05T17:00:07.037Z,96809.32
2018-06-05T17:02:49.911Z,96819.45
2018-06-05T17:05:29.532Z,96817.38
2018-06-05T17:08:09.330Z,96826.57
2018-06-05T17:10:58.062Z,96830.79
2018-06-05T17:13:39.582Z,96830.66
2018-06-05T17:16:23.248Z,96836.95
2018-06-05T17:19:05.094Z,96841.35
2018-06-05T17:21:46.991Z,96844.77
2018-06-05T17:24:33.729Z,96846.31
2018-06-05T17:27:12.836Z,96852.21
2018-06-05T17:29:50.948Z,96851.72
2018-06-05T17:32:29.142Z,96853.63
2018-06-05T17:35:14.973Z,96860.66
2018-06-05T17:38:01.470Z,96864.03
2018-06-05T17:40:44.154Z,96865.81
2018-06-05T17:43:31.541Z,96870.84
2018-06-05T17:46:14.665Z,96874.30
2018-06-05T17:49:01.448Z,96872.02
2018-06-05T17:51:46.404Z,96871.31
2018-06-05T17:54:29.619Z,96871.33
2018-06-05T17:57:08.327Z,96870.41
2018-06-05T18:02:31.681Z,96870.50
2018-06-05T18:07:58.531Z,96880.55
2018-06-05T18:10:37.486Z,96874.52
2018-06-05T18:13:14.616Z,96876.37
2018-06-05T18:15:53.877Z,96881.55
2018-06-05T18:18:38.970Z,96883.98
2018-06-05T18:21:25.161Z,96888.69
2018-06-05T18:24:04.754Z,96883.52
2018-06-05T18:26:51.086Z,96880.14
2018-06-05T18:29:34.409Z,96885.40
2018-06-05T18:34:50.088Z,96886.29
2018-06-05T18:37:34.138Z,96886.67
2018-06-05T18:40:15.316Z,96885.75
2018-06-05T18:42:50.736Z,96888.34
2018-06-05T18:45:31.043Z,96895.59
2018-06-05T18:48:14.710Z,96894.38
2018-06-05T18:53:46.877Z,96904.50
2018-06-05T18:56:24.335Z,96902.64
2018-06-05T18:59:01.503Z,96905.02
2018-06-05T19:01:45.973Z,96918.82
2018-06-05T19:04:24.630Z,96924.21
2018-06-05T19:07:06.680Z,96916.98
2018-06-05T19:09:50.317Z,96917.17
2018-06-05T19:12:29.596Z,96922.13
2018-06-05T19:15:09.233Z,96917.42
2018-06-05T19:17:50.106Z,96923.06
2018-06-05T19:23:19.764Z,96922.02
2018-06-05T19:26:05.591Z,96927.55
2018-06-05T19:28:48.121Z,96927.85
2018-06-05T19:31:32.136Z,96935.50
2018-06-05T19:34:14.384Z,96940.66
2018-06-05T19:36:55.288Z,96940.50
2018-06-05T19:39:38.172Z,96932.88
2018-06-05T19:45:12.117Z,96941.94
2018-06-05T19:47:59.140Z,96952.39
2018-06-05T19:50:39.788Z,96949.12
2018-06-05T19:55:59.368Z,96952.50
2018-06-05T19:58:37.429Z,96954.36
2018-06-05T20:01:20.543Z,96956.59
2018-06-05T20:03:59.658Z,96966.55
2018-06-05T20:06:36.915Z,96968.23
2018-06-05T20:09:22.287Z,96961.89
2018-06-05T20:12:01.733Z,96965.14
2018-06-05T20:14:42.641Z,96959.30
2018-06-05T20:17:24.489Z,96964.33
2018-06-05T20:20:06.508Z,96963.79
2018-06-05T20:25:30.367Z,96973.78
2018-06-05T20:28:14.479Z,96972.47
2018-06-05T20:30:55.423Z,96975.83
2018-06-05T20:36:29.345Z,96973.45
2018-06-05T20:39:11.899Z,96967.23
2018-06-05T20:41:54.374Z,96982.20
2018-06-05T20:44:39.239Z,96977.38
2018-06-05T20:47:22.010Z,96976.84
2018-06-05T20:50:02.290Z,96979.27
2018-06-05T20:52:49.246Z,96980.99
2018-06-05T20:58:17.055Z,96977.80
2018-06-05T21:00:53.153Z,96983.42
2018-06-05T21:03:33.907Z,96983.69
2018-06-05T21:06:16.941Z,96980.46
2018-06-05T21:08:58.878Z,96977.52
2018-06-05T21:11:41.274Z,96987.95
2018-06-05T21:14:22.994Z,96992.56
2018-06-05T21:17:05.305Z,97000.33
2018-06-05T21:19:42.559Z,96999.80
2018-06-05T21:25:15.119Z,97005.44
2018-06-05T21:27:55.152Z,97004.06
2018-06-05T21:30:36.924Z,97008.63
2018-06-05T21:33:14.304Z,97009.16
2018-06-05T21:36:00.563Z,97007.27
2018-06-05T21:38:47.586Z,97008.61
2018-06-05T21:41:25.956Z,97019.33
2018-06-05T21:44:09.324Z,97011.83
2018-06-05T21:46:49.832Z,97014.52
2018-06-05T21:49:27.640Z,97012.38
2018-06-05T21:52:12.152Z,97018.45
2018-06-05T21:54:53.242Z,97022.98
2018-06-05T22:00:21.826Z,97009.34
2018-06-05T22:03:07.758Z,97015.51
2018-06-05T22:05:49.265Z,97015.27
2018-06-05T22:08:33.092Z,97017.66
2018-06-05T22:11:13.710Z,97015.52
2018-06-05T22:13:55.167Z,97015.23
2018-06-05T22:16:36.280Z,97015.47
2018-06-05T22:19:17.000Z,97017.93
2018-06-05T22:22:06.299Z,97015.02
2018-06-05T22:24:43.762Z,97009.39
2018-06-05T22:27:22.478Z,97012.34
2018-06-05T22:30:06.226Z,97013.92
2018-06-05T22:32:45.261Z,97010.68
2018-06-05T22:35:20.312Z,97011.27
2018-06-05T22:37:56.882Z,97012.12
2018-06-05T22:40:33.835Z,97011.30
2018-06-05T22:43:11.765Z,97021.20
2018-06-05T22:45:54.357Z,97015.81
2018-06-05T22:48:30.651Z,97021.70
2018-06-05T22:51:08.251Z,97019.79
2018-06-05T22:53:50.913Z,97030.39
2018-06-05T22:56:31.886Z,97029.29
2018-06-05T22:59:15.437Z,97033.59
2018-06-05T23:01:56.112Z,97033.53
2018-06-05T23:04:39.520Z,97027.95
2018-06-05T23:07:22.770Z,97028.96
2018-06-05T23:10:03.122Z,97028.22
2018-06-05T23:12:41.640Z,97029.77
2018-06-05T23:15:21.171Z,97027.80
2018-06-05T23:17:59.988Z,97037.28
2018-06-05T23:20:47.861Z,97029.52
2018-06-05T23:23:32.194Z,97029.35
2018-06-05T23:26:12.328Z,97029.94
2018-06-05T23:28:59.090Z,97029.23
2018-06-05T23:31:36.354Z,97029.75
2018-06-05T23:34:16.365Z,97024.32
2018-06-05T23:36:55.643Z,97025.62
2018-06-05T23:39:38.698Z,97030.91
2018-06-05T23:42:11.976Z,97034.39
2018-06-05T23:44:56.511Z,97032.38
2018-06-05T23:47:40.999Z,97031.06
2018-06-05T23:50:21.295Z,97035.91
2018-06-05T23:53:00.847Z,97033.30
2018-06-05T23:55:39.322Z,97035.48
2018-06-05T23:58:19.384Z,97027.67
